AKDT,Max TemperatureF,Mean TemperatureF,Min TemperatureF,Max Dew PointF,MeanDew PointF,Min DewpointF,Max Humidity, Mean Humidity, Min Humidity, Max Sea Level PressureIn, Mean Sea Level PressureIn, Min Sea Level PressureIn, Max VisibilityMiles, Mean VisibilityMiles, Min VisibilityMiles, Max Wind SpeedMPH, Mean Wind SpeedMPH, Max Gust SpeedMPH,PrecipitationIn, CloudCover, Events, WindDirDegrees
2013-3-1,4,-6,-16,-4,-11,-20,0,0,0,30.10,30.01,29.84,10,10,10,18,6,22,0.00,1,,61
2013-3-2,20,4,-12,3,-7,-18,0,0,0,30.07,30.02,29.97,10,10,10,13,4,16,0.00,4,,66
2013-3-3,21,15,9,13,9,5,0,0,0,30.17,30.11,30.01,10,10,10,20,11,24,0.00,5,,84
2013-3-4,29,24,19,27,20,12,0,0,0,30.15,29.98,29.85,10,9,2,28,0,37,T,6,Snow,92
2013-3-5,33,31,29,32,30,27,0,0,0,29.85,29.73,29.59,5,2,1,28,23,33,0.09,8,Snow,110
2013-3-6,32,29,25,32,27,23,0,0,0,29.71,29.64,29.57,10,5,0,20,12,23,0.04,8,Fog-Snow,130
2013-3-7,32,29,26,30,27,20,0,0,0,29.63,29.19,29.04,10,2,0,30,23,39,0.28,8,Fog-Snow,72
2013-3-8,32,29,25,32,29,25,0,0,0,29.38,29.19,29.06,10,4,0,28,14,35,0.04,8,Fog-Snow,116
2013-3-9,25,18,10,23,16,8,0,0,0,29.82,29.69,29.39,10,4,0,26,14,33,0.06,8,Snow,96
2013-3-10,24,11,-2,21,7,-7,0,0,0,30.61,30.24,29.80,10,10,10,14,7,16,0.00,2,,296
2013-3-11,12,2,-8,7,-1,-11,0,0,0,30.78,30.73,30.61,10,9,4,10,3,12,T,6,Snow,58
2013-3-12,4,-3,-10,0,-5,-13,0,0,0,30.74,30.63,30.45,10,4,0,7,1,7,0.00,3,Fog,310
2013-3-13,20,10,0,9,2,-5,0,0,0,30.43,30.29,30.19,10,10,9,15,1,20,0.00,3,,280
2013-3-14,21,14,6,3,-4,-10,0,0,0,30.25,30.12,29.95,10,10,10,32,17,40,0.00,0,Snow,44
2013-3-15,17,12,7,12,5,-5,0,0,0,29.96,29.78,29.71,10,6,0,24,13,28,0.02,6,Fog-Snow,87
2013-3-16,19,14,9,16,10,3,0,0,0,30.04,29.83,29.73,10,4,0,31,18,37,0.02,7,Snow,97
2013-3-17,25,16,7,20,14,3,0,0,0,30.35,30.22,30.04,10,8,2,23,12,29,0.03,6,Snow,74
2013-3-18,24,11,-2,12,5,-2,0,0,0,30.41,30.38,30.35,10,10,10,23,7,29,0.00,3,,331
2013-3-19,16,7,-2,7,2,-8,0,0,0,30.42,30.37,30.23,10,10,9,16,3,20,T,4,,308
2013-3-20,17,12,6,14,6,-8,0,0,0,30.19,30.06,30.01,10,9,3,20,5,23,T,5,Snow,307
2013-3-21,5,-4,-13,-4,-11,-17,0,0,0,30.07,30.05,30.03,10,10,10,14,4,15,0.00,4,,11
2013-3-22,1,-9,-18,-11,-17,-22,0,0,0,30.12,30.09,30.05,10,10,10,22,9,26,0.00,1,,320
2013-3-23,3,-7,-17,-6,-14,-23,0,0,0,30.11,30.09,30.07,10,10,10,25,6,30,0.00,3,,303
2013-3-24,-2,-11,-20,-14,-18,-24,0,0,0,30.22,30.13,30.11,10,10,10,12,4,16,0.00,3,,332
2013-3-25,0,-7,-14,-11,-17,-21,0,0,0,30.12,30.07,30.04,10,10,10,18,5,22,0.00,4,,313
2013-3-26,0,-10,-19,-11,-17,-24,0,0,0,30.24,30.16,30.07,10,10,10,7,1,8,0.00,3,,204
2013-3-27,2,-10,-21,-9,-16,-23,0,0,0,30.25,30.18,30.03,10,9,4,8,2,9,T,4,Snow,4
2013-3-28,21,4,-13,12,-2,-19,0,0,0,30.01,29.83,29.73,10,9,2,17,7,20,T,5,Snow,9
2013-3-29,24,20,16,18,14,12,0,0,0,29.96,29.82,29.74,10,7,2,14,5,16,0.06,8,Snow,334
2013-3-30,18,15,12,16,13,10,0,0,0,30.25,30.13,29.98,10,9,3,10,6,13,T,8,Snow,97
2013-3-31,13,8,2,11,10,5,0,0,0,30.30,30.27,30.23,10,3,0,10,6,12,T,8,Fog-Snow,102